sensor_id;sensor_type;location;lat;lon;timestamp;P1;durP1;ratioP1;P2;durP2;ratioP2
55372;SDS011;70018;47.838;16.490;2024-02-28T00:02:02;2.35;;;1.33;;
55372;SDS011;70018;47.838;16.490;2024-02-28T00:04:28;3.00;;;1.55;;
55372;SDS011;70018;47.838;16.490;2024-02-28T00:06:55;4.72;;;1.90;;
55372;SDS011;70018;47.838;16.490;2024-02-28T00:09:22;2.00;;;1.13;;
55372;SDS011;70018;47.838;16.490;2024-02-28T00:11:49;2.50;;;1.15;;
55372;SDS011;70018;47.838;16.490;2024-02-28T00:14:15;2.03;;;1.13;;
55372;SDS011;70018;47.838;16.490;2024-02-28T00:16:43;2.30;;;1.60;;
55372;SDS011;70018;47.838;16.490;2024-02-28T00:19:11;10.95;;;2.10;;
55372;SDS011;70018;47.838;16.490;2024-02-28T00:21:39;2.80;;;1.63;;
55372;SDS011;70018;47.838;16.490;2024-02-28T00:24:07;2.47;;;1.30;;
55372;SDS011;70018;47.838;16.490;2024-02-28T00:26:34;2.20;;;1.40;;
55372;SDS011;70018;47.838;16.490;2024-02-28T00:29:01;4.00;;;1.58;;
55372;SDS011;70018;47.838;16.490;2024-02-28T00:31:28;2.15;;;0.90;;
55372;SDS011;70018;47.838;16.490;2024-02-28T00:33:55;1.88;;;1.15;;
55372;SDS011;70018;47.838;16.490;2024-02-28T00:36:21;3.53;;;1.13;;
55372;SDS011;70018;47.838;16.490;2024-02-28T00:38:48;2.08;;;1.20;;
55372;SDS011;70018;47.838;16.490;2024-02-28T00:41:15;3.13;;;1.20;;
55372;SDS011;70018;47.838;16.490;2024-02-28T00:43:42;2.65;;;1.33;;
55372;SDS011;70018;47.838;16.490;2024-02-28T00:46:08;3.42;;;1.50;;
55372;SDS011;70018;47.838;16.490;2024-02-28T00:48:38;3.75;;;1.75;;
55372;SDS011;70018;47.838;16.490;2024-02-28T00:51:06;4.07;;;1.85;;
55372;SDS011;70018;47.838;16.490;2024-02-28T00:53:34;3.83;;;1.75;;
55372;SDS011;70018;47.838;16.490;2024-02-28T00:56:01;5.82;;;1.90;;
55372;SDS011;70018;47.838;16.490;2024-02-28T00:58:28;1.98;;;1.38;;
55372;SDS011;70018;47.838;16.490;2024-02-28T01:00:56;2.17;;;1.20;;
55372;SDS011;70018;47.838;16.490;2024-02-28T01:03:23;3.50;;;1.08;;
55372;SDS011;70018;47.838;16.490;2024-02-28T01:05:50;2.63;;;1.60;;
55372;SDS011;70018;47.838;16.490;2024-02-28T01:08:17;2.58;;;1.08;;
55372;SDS011;70018;47.838;16.490;2024-02-28T01:10:45;2.80;;;1.77;;
55372;SDS011;70018;47.838;16.490;2024-02-28T01:13:12;2.60;;;1.55;;
55372;SDS011;70018;47.838;16.490;2024-02-28T01:15:39;2.97;;;1.60;;
55372;SDS011;70018;47.838;16.490;2024-02-28T01:18:08;2.47;;;1.48;;
55372;SDS011;70018;47.838;16.490;2024-02-28T01:20:36;5.22;;;2.25;;
55372;SDS011;70018;47.838;16.490;2024-02-28T01:23:03;6.32;;;2.75;;
55372;SDS011;70018;47.838;16.490;2024-02-28T01:25:29;3.72;;;1.95;;
55372;SDS011;70018;47.838;16.490;2024-02-28T01:27:56;3.95;;;1.92;;
55372;SDS011;70018;47.838;16.490;2024-02-28T01:30:26;6.00;;;2.67;;
55372;SDS011;70018;47.838;16.490;2024-02-28T01:32:52;4.97;;;2.55;;
55372;SDS011;70018;47.838;16.490;2024-02-28T01:35:19;5.85;;;2.55;;
55372;SDS011;70018;47.838;16.490;2024-02-28T01:37:46;6.80;;;3.20;;
55372;SDS011;70018;47.838;16.490;2024-02-28T01:40:13;5.60;;;3.40;;
55372;SDS011;70018;47.838;16.490;2024-02-28T01:42:40;4.35;;;2.70;;
55372;SDS011;70018;47.838;16.490;2024-02-28T01:45:06;4.80;;;1.90;;
55372;SDS011;70018;47.838;16.490;2024-02-28T01:47:36;6.57;;;2.60;;
55372;SDS011;70018;47.838;16.490;2024-02-28T01:50:04;4.40;;;2.60;;
55372;SDS011;70018;47.838;16.490;2024-02-28T01:52:31;4.10;;;2.53;;
55372;SDS011;70018;47.838;16.490;2024-02-28T01:54:58;4.68;;;2.10;;
55372;SDS011;70018;47.838;16.490;2024-02-28T01:57:25;6.40;;;2.65;;
55372;SDS011;70018;47.838;16.490;2024-02-28T01:59:53;3.67;;;1.83;;
55372;SDS011;70018;47.838;16.490;2024-02-28T02:02:22;3.08;;;2.30;;
55372;SDS011;70018;47.838;16.490;2024-02-28T02:04:48;6.13;;;2.83;;
55372;SDS011;70018;47.838;16.490;2024-02-28T02:07:15;3.72;;;2.22;;
55372;SDS011;70018;47.838;16.490;2024-02-28T02:09:42;3.10;;;1.98;;
55372;SDS011;70018;47.838;16.490;2024-02-28T02:12:09;3.25;;;1.63;;
55372;SDS011;70018;47.838;16.490;2024-02-28T02:14:36;2.97;;;1.88;;
55372;SDS011;70018;47.838;16.490;2024-02-28T02:17:02;5.82;;;2.20;;
55372;SDS011;70018;47.838;16.490;2024-02-28T02:19:29;4.55;;;2.30;;
55372;SDS011;70018;47.838;16.490;2024-02-28T02:21:57;5.03;;;2.63;;
55372;SDS011;70018;47.838;16.490;2024-02-28T02:24:25;4.22;;;2.38;;
55372;SDS011;70018;47.838;16.490;2024-02-28T02:26:57;7.00;;;3.00;;
55372;SDS011;70018;47.838;16.490;2024-02-28T02:29:24;2.13;;;1.75;;
55372;SDS011;70018;47.838;16.490;2024-02-28T02:31:51;5.32;;;3.03;;
55372;SDS011;70018;47.838;16.490;2024-02-28T02:34:17;4.53;;;3.13;;
55372;SDS011;70018;47.838;16.490;2024-02-28T02:36:44;3.75;;;1.60;;
55372;SDS011;70018;47.838;16.490;2024-02-28T02:39:11;7.75;;;2.67;;
55372;SDS011;70018;47.838;16.490;2024-02-28T02:41:38;2.92;;;1.52;;
55372;SDS011;70018;47.838;16.490;2024-02-28T02:44:04;3.75;;;1.95;;
55372;SDS011;70018;47.838;16.490;2024-02-28T02:46:31;3.05;;;1.90;;
55372;SDS011;70018;47.838;16.490;2024-02-28T02:48:57;4.05;;;1.67;;
55372;SDS011;70018;47.838;16.490;2024-02-28T02:51:24;5.15;;;1.75;;
55372;SDS011;70018;47.838;16.490;2024-02-28T02:53:52;3.13;;;1.90;;
55372;SDS011;70018;47.838;16.490;2024-02-28T02:56:20;7.72;;;2.60;;
55372;SDS011;70018;47.838;16.490;2024-02-28T02:58:46;5.90;;;2.47;;
55372;SDS011;70018;47.838;16.490;2024-02-28T03:01:13;6.20;;;2.90;;
55372;SDS011;70018;47.838;16.490;2024-02-28T03:03:40;6.80;;;2.85;;
55372;SDS011;70018;47.838;16.490;2024-02-28T03:06:07;4.95;;;1.90;;
55372;SDS011;70018;47.838;16.490;2024-02-28T03:08:36;3.88;;;1.77;;
55372;SDS011;70018;47.838;16.490;2024-02-28T03:11:02;3.35;;;1.10;;
55372;SDS011;70018;47.838;16.490;2024-02-28T03:13:31;1.85;;;1.20;;
55372;SDS011;70018;47.838;16.490;2024-02-28T03:15:57;3.75;;;1.02;;
55372;SDS011;70018;47.838;16.490;2024-02-28T03:18:24;4.07;;;1.48;;
55372;SDS011;70018;47.838;16.490;2024-02-28T03:20:51;2.97;;;1.25;;
55372;SDS011;70018;47.838;16.490;2024-02-28T03:23:18;4.78;;;1.83;;
55372;SDS011;70018;47.838;16.490;2024-02-28T03:25:44;2.42;;;1.63;;
55372;SDS011;70018;47.838;16.490;2024-02-28T03:28:11;0.90;;;0.73;;
55372;SDS011;70018;47.838;16.490;2024-02-28T03:30:38;2.75;;;1.60;;
55372;SDS011;70018;47.838;16.490;2024-02-28T03:33:04;3.25;;;1.33;;
55372;SDS011;70018;47.838;16.490;2024-02-28T03:35:31;2.40;;;1.10;;
55372;SDS011;70018;47.838;16.490;2024-02-28T03:37:58;3.83;;;1.45;;
55372;SDS011;70018;47.838;16.490;2024-02-28T03:40:24;2.13;;;1.20;;
55372;SDS011;70018;47.838;16.490;2024-02-28T03:42:51;1.90;;;1.48;;
55372;SDS011;70018;47.838;16.490;2024-02-28T03:45:18;1.33;;;0.85;;
55372;SDS011;70018;47.838;16.490;2024-02-28T03:47:46;3.75;;;1.25;;
55372;SDS011;70018;47.838;16.490;2024-02-28T03:50:12;4.22;;;1.73;;
55372;SDS011;70018;47.838;16.490;2024-02-28T03:52:40;4.32;;;1.50;;
55372;SDS011;70018;47.838;16.490;2024-02-28T03:55:06;3.25;;;1.95;;
55372;SDS011;70018;47.838;16.490;2024-02-28T03:57:33;2.55;;;1.10;;
55372;SDS011;70018;47.838;16.490;2024-02-28T06:23:20;3.40;;;1.80;;
55372;SDS011;70018;47.838;16.490;2024-02-28T06:25:55;2.28;;;1.23;;
55372;SDS011;70018;47.838;16.490;2024-02-28T06:28:22;1.92;;;1.48;;
55372;SDS011;70018;47.838;16.490;2024-02-28T07:40:18;5.18;;;3.28;;
55372;SDS011;70018;47.838;16.490;2024-02-28T07:42:45;7.55;;;3.38;;
55372;SDS011;70018;47.838;16.490;2024-02-28T07:45:11;7.47;;;3.88;;
55372;SDS011;70018;47.838;16.490;2024-02-28T07:47:38;4.07;;;2.85;;
55372;SDS011;70018;47.838;16.490;2024-02-28T07:50:06;5.82;;;3.95;;
55372;SDS011;70018;47.838;16.490;2024-02-28T07:52:33;5.85;;;3.55;;
55372;SDS011;70018;47.838;16.490;2024-02-28T07:55:01;6.93;;;3.85;;
55372;SDS011;70018;47.838;16.490;2024-02-28T07:57:28;9.13;;;3.97;;
55372;SDS011;70018;47.838;16.490;2024-02-28T07:59:55;7.00;;;3.67;;
55372;SDS011;70018;47.838;16.490;2024-02-28T08:02:22;7.85;;;4.38;;
55372;SDS011;70018;47.838;16.490;2024-02-28T08:04:49;4.03;;;2.47;;
55372;SDS011;70018;47.838;16.490;2024-02-28T08:07:17;3.90;;;2.40;;
55372;SDS011;70018;47.838;16.490;2024-02-28T08:09:43;7.70;;;2.92;;
55372;SDS011;70018;47.838;16.490;2024-02-28T08:12:10;6.65;;;3.88;;
55372;SDS011;70018;47.838;16.490;2024-02-28T08:14:37;7.63;;;3.85;;
55372;SDS011;70018;47.838;16.490;2024-02-28T08:17:03;5.65;;;3.33;;
55372;SDS011;70018;47.838;16.490;2024-02-28T08:19:30;5.03;;;2.10;;
55372;SDS011;70018;47.838;16.490;2024-02-28T08:21:57;6.55;;;2.97;;
55372;SDS011;70018;47.838;16.490;2024-02-28T08:24:24;5.32;;;2.78;;
55372;SDS011;70018;47.838;16.490;2024-02-28T08:26:50;5.00;;;3.22;;
55372;SDS011;70018;47.838;16.490;2024-02-28T08:29:17;4.22;;;2.50;;
55372;SDS011;70018;47.838;16.490;2024-02-28T08:31:44;4.72;;;3.38;;
55372;SDS011;70018;47.838;16.490;2024-02-28T08:34:11;8.20;;;4.20;;
55372;SDS011;70018;47.838;16.490;2024-02-28T08:36:38;7.38;;;4.15;;
55372;SDS011;70018;47.838;16.490;2024-02-28T08:39:05;7.80;;;3.85;;
55372;SDS011;70018;47.838;16.490;2024-02-28T08:41:33;6.22;;;3.40;;
55372;SDS011;70018;47.838;16.490;2024-02-28T08:44:00;5.75;;;3.70;;
55372;SDS011;70018;47.838;16.490;2024-02-28T08:46:27;6.07;;;3.20;;
55372;SDS011;70018;47.838;16.490;2024-02-28T10:01:13;12.05;;;5.93;;
55372;SDS011;70018;47.838;16.490;2024-02-28T10:03:44;10.57;;;5.88;;
55372;SDS011;70018;47.838;16.490;2024-02-28T10:06:11;10.60;;;6.25;;
55372;SDS011;70018;47.838;16.490;2024-02-28T10:08:40;11.40;;;5.85;;
55372;SDS011;70018;47.838;16.490;2024-02-28T10:11:06;9.82;;;5.85;;
55372;SDS011;70018;47.838;16.490;2024-02-28T10:13:33;9.63;;;5.25;;
55372;SDS011;70018;47.838;16.490;2024-02-28T10:16:02;8.43;;;4.75;;
55372;SDS011;70018;47.838;16.490;2024-02-28T10:18:30;6.95;;;4.38;;
55372;SDS011;70018;47.838;16.490;2024-02-28T10:20:56;10.13;;;5.82;;
55372;SDS011;70018;47.838;16.490;2024-02-28T10:23:23;11.85;;;7.30;;
55372;SDS011;70018;47.838;16.490;2024-02-28T10:25:50;12.27;;;7.35;;
55372;SDS011;70018;47.838;16.490;2024-02-28T10:28:23;13.35;;;7.32;;
55372;SDS011;70018;47.838;16.490;2024-02-28T10:30:50;11.40;;;6.53;;
55372;SDS011;70018;47.838;16.490;2024-02-28T10:33:17;15.55;;;5.75;;
55372;SDS011;70018;47.838;16.490;2024-02-28T10:35:44;16.63;;;6.28;;
55372;SDS011;70018;47.838;16.490;2024-02-28T10:38:12;14.35;;;7.72;;
55372;SDS011;70018;47.838;16.490;2024-02-28T10:40:42;8.88;;;5.22;;
55372;SDS011;70018;47.838;16.490;2024-02-28T10:43:10;12.45;;;7.05;;
55372;SDS011;70018;47.838;16.490;2024-02-28T10:45:37;14.95;;;8.98;;
55372;SDS011;70018;47.838;16.490;2024-02-28T10:48:27;8.90;;;4.97;;
55372;SDS011;70018;47.838;16.490;2024-02-28T10:50:54;16.17;;;8.50;;
55372;SDS011;70018;47.838;16.490;2024-02-28T10:53:22;15.10;;;8.43;;
55372;SDS011;70018;47.838;16.490;2024-02-28T10:56:04;9.75;;;5.75;;
55372;SDS011;70018;47.838;16.490;2024-02-28T10:58:35;13.43;;;7.43;;
55372;SDS011;70018;47.838;16.490;2024-02-28T11:01:03;10.73;;;6.03;;
55372;SDS011;70018;47.838;16.490;2024-02-28T11:03:31;17.25;;;8.63;;
55372;SDS011;70018;47.838;16.490;2024-02-28T11:05:58;13.07;;;7.60;;
55372;SDS011;70018;47.838;16.490;2024-02-28T11:08:26;13.05;;;7.03;;
55372;SDS011;70018;47.838;16.490;2024-02-28T11:10:55;12.55;;;6.57;;
55372;SDS011;70018;47.838;16.490;2024-02-28T11:13:28;13.63;;;8.65;;
55372;SDS011;70018;47.838;16.490;2024-02-28T11:16:06;12.27;;;6.63;;
55372;SDS011;70018;47.838;16.490;2024-02-28T11:18:47;12.57;;;6.50;;
55372;SDS011;70018;47.838;16.490;2024-02-28T11:21:15;15.55;;;7.50;;
55372;SDS011;70018;47.838;16.490;2024-02-28T11:23:46;15.00;;;7.90;;
55372;SDS011;70018;47.838;16.490;2024-02-28T11:26:14;16.90;;;7.75;;
55372;SDS011;70018;47.838;16.490;2024-02-28T11:28:42;18.77;;;10.00;;
55372;SDS011;70018;47.838;16.490;2024-02-28T11:31:08;12.48;;;6.60;;
55372;SDS011;70018;47.838;16.490;2024-02-28T11:33:35;10.10;;;4.85;;
55372;SDS011;70018;47.838;16.490;2024-02-28T11:36:03;14.30;;;8.98;;
55372;SDS011;70018;47.838;16.490;2024-02-28T11:38:30;9.77;;;6.25;;
55372;SDS011;70018;47.838;16.490;2024-02-28T11:40:57;9.57;;;5.43;;
55372;SDS011;70018;47.838;16.490;2024-02-28T11:43:24;10.90;;;6.72;;
55372;SDS011;70018;47.838;16.490;2024-02-28T11:45:53;12.07;;;6.00;;
55372;SDS011;70018;47.838;16.490;2024-02-28T11:48:21;12.10;;;6.70;;
55372;SDS011;70018;47.838;16.490;2024-02-28T11:50:48;9.35;;;5.32;;
55372;SDS011;70018;47.838;16.490;2024-02-28T11:53:17;10.45;;;6.68;;
55372;SDS011;70018;47.838;16.490;2024-02-28T11:55:45;13.40;;;6.22;;
55372;SDS011;70018;47.838;16.490;2024-02-28T11:58:14;16.30;;;6.80;;
55372;SDS011;70018;47.838;16.490;2024-02-28T12:00:47;11.68;;;6.78;;
55372;SDS011;70018;47.838;16.490;2024-02-28T12:03:22;13.50;;;7.65;;
55372;SDS011;70018;47.838;16.490;2024-02-28T12:05:50;20.60;;;9.85;;
55372;SDS011;70018;47.838;16.490;2024-02-28T12:08:18;11.45;;;7.22;;
55372;SDS011;70018;47.838;16.490;2024-02-28T12:10:45;17.02;;;8.00;;
55372;SDS011;70018;47.838;16.490;2024-02-28T12:13:16;13.02;;;6.07;;
55372;SDS011;70018;47.838;16.490;2024-02-28T12:15:46;14.48;;;7.28;;
55372;SDS011;70018;47.838;16.490;2024-02-28T12:18:15;9.23;;;5.05;;
55372;SDS011;70018;47.838;16.490;2024-02-28T12:20:42;10.85;;;6.40;;
55372;SDS011;70018;47.838;16.490;2024-02-28T12:23:08;11.70;;;6.50;;
55372;SDS011;70018;47.838;16.490;2024-02-28T12:25:35;16.42;;;8.73;;
55372;SDS011;70018;47.838;16.490;2024-02-28T12:28:02;14.95;;;7.43;;
55372;SDS011;70018;47.838;16.490;2024-02-28T12:30:38;13.40;;;8.05;;
55372;SDS011;70018;47.838;16.490;2024-02-28T12:33:08;17.20;;;7.72;;
55372;SDS011;70018;47.838;16.490;2024-02-28T12:35:35;17.35;;;8.77;;
55372;SDS011;70018;47.838;16.490;2024-02-28T12:38:02;12.05;;;6.13;;
55372;SDS011;70018;47.838;16.490;2024-02-28T12:40:29;12.82;;;6.57;;
55372;SDS011;70018;47.838;16.490;2024-02-28T12:42:56;9.88;;;6.15;;
55372;SDS011;70018;47.838;16.490;2024-02-28T12:45:23;8.13;;;4.90;;
55372;SDS011;70018;47.838;16.490;2024-02-28T12:47:50;8.55;;;4.97;;
55372;SDS011;70018;47.838;16.490;2024-02-28T12:50:16;11.30;;;7.07;;
55372;SDS011;70018;47.838;16.490;2024-02-28T12:52:43;12.93;;;6.47;;
55372;SDS011;70018;47.838;16.490;2024-02-28T12:55:10;8.60;;;4.88;;
55372;SDS011;70018;47.838;16.490;2024-02-28T12:57:37;7.57;;;5.20;;
55372;SDS011;70018;47.838;16.490;2024-02-28T13:00:04;11.73;;;6.30;;
55372;SDS011;70018;47.838;16.490;2024-02-28T13:02:32;8.20;;;4.28;;
55372;SDS011;70018;47.838;16.490;2024-02-28T13:04:59;8.15;;;3.58;;
55372;SDS011;70018;47.838;16.490;2024-02-28T13:07:26;13.93;;;7.43;;
55372;SDS011;70018;47.838;16.490;2024-02-28T13:09:52;14.00;;;7.70;;
55372;SDS011;70018;47.838;16.490;2024-02-28T13:12:19;12.30;;;7.22;;
55372;SDS011;70018;47.838;16.490;2024-02-28T13:14:46;12.63;;;6.32;;
55372;SDS011;70018;47.838;16.490;2024-02-28T13:17:13;12.38;;;7.25;;
55372;SDS011;70018;47.838;16.490;2024-02-28T13:19:41;9.75;;;6.07;;
55372;SDS011;70018;47.838;16.490;2024-02-28T13:22:08;14.75;;;6.95;;
55372;SDS011;70018;47.838;16.490;2024-02-28T13:24:34;15.10;;;8.27;;
55372;SDS011;70018;47.838;16.490;2024-02-28T13:27:02;16.13;;;7.55;;
55372;SDS011;70018;47.838;16.490;2024-02-28T13:29:29;10.23;;;5.60;;
55372;SDS011;70018;47.838;16.490;2024-02-28T13:31:58;10.55;;;5.55;;
55372;SDS011;70018;47.838;16.490;2024-02-28T13:34:25;12.50;;;7.10;;
55372;SDS011;70018;47.838;16.490;2024-02-28T13:36:52;14.98;;;8.40;;
55372;SDS011;70018;47.838;16.490;2024-02-28T13:39:18;11.68;;;6.47;;
55372;SDS011;70018;47.838;16.490;2024-02-28T13:41:45;16.20;;;8.73;;
55372;SDS011;70018;47.838;16.490;2024-02-28T13:44:17;13.38;;;7.50;;
55372;SDS011;70018;47.838;16.490;2024-02-28T13:46:45;14.88;;;8.95;;
55372;SDS011;70018;47.838;16.490;2024-02-28T13:49:12;10.82;;;7.03;;
55372;SDS011;70018;47.838;16.490;2024-02-28T13:51:44;9.70;;;5.88;;
55372;SDS011;70018;47.838;16.490;2024-02-28T13:54:11;12.50;;;6.85;;
55372;SDS011;70018;47.838;16.490;2024-02-28T13:56:38;14.23;;;6.43;;
55372;SDS011;70018;47.838;16.490;2024-02-28T13:59:04;11.93;;;5.97;;
55372;SDS011;70018;47.838;16.490;2024-02-28T14:01:32;12.18;;;7.28;;
55372;SDS011;70018;47.838;16.490;2024-02-28T14:03:59;14.55;;;6.97;;
55372;SDS011;70018;47.838;16.490;2024-02-28T14:06:26;16.33;;;8.02;;
55372;SDS011;70018;47.838;16.490;2024-02-28T14:08:53;14.13;;;7.90;;
55372;SDS011;70018;47.838;16.490;2024-02-28T14:11:19;17.17;;;7.88;;
55372;SDS011;70018;47.838;16.490;2024-02-28T14:13:47;14.73;;;7.75;;
55372;SDS011;70018;47.838;16.490;2024-02-28T14:16:13;19.90;;;8.55;;
55372;SDS011;70018;47.838;16.490;2024-02-28T14:18:41;14.88;;;7.90;;
55372;SDS011;70018;47.838;16.490;2024-02-28T14:21:07;15.85;;;8.77;;
55372;SDS011;70018;47.838;16.490;2024-02-28T14:23:34;13.82;;;8.80;;
55372;SDS011;70018;47.838;16.490;2024-02-28T14:26:01;10.52;;;5.90;;
55372;SDS011;70018;47.838;16.490;2024-02-28T14:28:28;16.35;;;8.15;;
55372;SDS011;70018;47.838;16.490;2024-02-28T14:30:55;13.52;;;8.27;;
55372;SDS011;70018;47.838;16.490;2024-02-28T14:33:22;17.15;;;8.65;;
55372;SDS011;70018;47.838;16.490;2024-02-28T14:35:49;15.80;;;7.35;;
55372;SDS011;70018;47.838;16.490;2024-02-28T14:38:15;15.13;;;8.00;;
55372;SDS011;70018;47.838;16.490;2024-02-28T14:40:42;10.45;;;6.40;;
55372;SDS011;70018;47.838;16.490;2024-02-28T14:43:09;13.95;;;7.45;;
55372;SDS011;70018;47.838;16.490;2024-02-28T14:45:36;11.20;;;6.22;;
55372;SDS011;70018;47.838;16.490;2024-02-28T14:48:06;12.93;;;7.35;;
55372;SDS011;70018;47.838;16.490;2024-02-28T14:50:33;15.35;;;8.30;;
55372;SDS011;70018;47.838;16.490;2024-02-28T14:53:00;19.20;;;9.20;;
55372;SDS011;70018;47.838;16.490;2024-02-28T14:55:27;14.88;;;8.48;;
55372;SDS011;70018;47.838;16.490;2024-02-28T14:57:53;14.73;;;8.00;;
55372;SDS011;70018;47.838;16.490;2024-02-28T15:00:20;14.75;;;8.88;;
55372;SDS011;70018;47.838;16.490;2024-02-28T15:02:47;16.48;;;9.05;;
55372;SDS011;70018;47.838;16.490;2024-02-28T15:05:14;16.13;;;9.23;;
55372;SDS011;70018;47.838;16.490;2024-02-28T15:07:41;17.42;;;9.55;;
55372;SDS011;70018;47.838;16.490;2024-02-28T15:10:07;17.27;;;9.73;;
55372;SDS011;70018;47.838;16.490;2024-02-28T15:12:34;16.23;;;8.00;;
55372;SDS011;70018;47.838;16.490;2024-02-28T15:15:02;21.58;;;10.25;;
55372;SDS011;70018;47.838;16.490;2024-02-28T15:17:31;18.73;;;8.95;;
55372;SDS011;70018;47.838;16.490;2024-02-28T15:19:59;13.88;;;7.68;;
55372;SDS011;70018;47.838;16.490;2024-02-28T15:22:28;17.83;;;9.63;;
55372;SDS011;70018;47.838;16.490;2024-02-28T15:24:56;19.10;;;10.60;;
55372;SDS011;70018;47.838;16.490;2024-02-28T15:27:23;12.98;;;6.07;;
55372;SDS011;70018;47.838;16.490;2024-02-28T15:29:49;15.40;;;7.80;;
55372;SDS011;70018;47.838;16.490;2024-02-28T15:32:16;16.65;;;8.10;;
55372;SDS011;70018;47.838;16.490;2024-02-28T15:34:43;15.98;;;8.48;;
55372;SDS011;70018;47.838;16.490;2024-02-28T15:37:09;18.42;;;9.50;;
55372;SDS011;70018;47.838;16.490;2024-02-28T15:39:36;15.07;;;8.68;;
55372;SDS011;70018;47.838;16.490;2024-02-28T15:42:03;18.27;;;9.02;;
55372;SDS011;70018;47.838;16.490;2024-02-28T15:44:30;19.23;;;9.18;;
55372;SDS011;70018;47.838;16.490;2024-02-28T15:46:57;19.10;;;9.82;;
55372;SDS011;70018;47.838;16.490;2024-02-28T15:49:23;13.55;;;8.85;;
55372;SDS011;70018;47.838;16.490;2024-02-28T15:52:05;18.70;;;8.65;;
55372;SDS011;70018;47.838;16.490;2024-02-28T15:54:32;16.92;;;9.15;;
55372;SDS011;70018;47.838;16.490;2024-02-28T15:56:59;15.52;;;8.68;;
55372;SDS011;70018;47.838;16.490;2024-02-28T15:59:26;20.73;;;9.95;;
55372;SDS011;70018;47.838;16.490;2024-02-28T16:01:53;29.15;;;10.70;;
55372;SDS011;70018;47.838;16.490;2024-02-28T16:04:20;17.98;;;10.15;;
55372;SDS011;70018;47.838;16.490;2024-02-28T16:09:29;15.18;;;8.57;;
55372;SDS011;70018;47.838;16.490;2024-02-28T16:17:16;14.18;;;7.55;;
55372;SDS011;70018;47.838;16.490;2024-02-28T16:19:43;15.45;;;7.53;;
55372;SDS011;70018;47.838;16.490;2024-02-28T16:22:10;17.67;;;8.75;;
55372;SDS011;70018;47.838;16.490;2024-02-28T16:24:37;21.90;;;9.10;;
55372;SDS011;70018;47.838;16.490;2024-02-28T16:27:05;20.17;;;10.18;;
55372;SDS011;70018;47.838;16.490;2024-02-28T16:29:31;18.30;;;9.60;;
55372;SDS011;70018;47.838;16.490;2024-02-28T16:31:58;19.77;;;10.27;;
55372;SDS011;70018;47.838;16.490;2024-02-28T16:34:26;21.13;;;9.55;;
55372;SDS011;70018;47.838;16.490;2024-02-28T16:36:53;15.57;;;9.43;;
55372;SDS011;70018;47.838;16.490;2024-02-28T16:39:19;19.23;;;9.93;;
55372;SDS011;70018;47.838;16.490;2024-02-28T16:41:47;16.10;;;8.38;;
55372;SDS011;70018;47.838;16.490;2024-02-28T16:44:14;15.00;;;8.48;;
55372;SDS011;70018;47.838;16.490;2024-02-28T16:46:41;15.35;;;8.27;;
55372;SDS011;70018;47.838;16.490;2024-02-28T16:49:08;29.60;;;9.98;;
55372;SDS011;70018;47.838;16.490;2024-02-28T16:51:35;16.02;;;8.63;;
55372;SDS011;70018;47.838;16.490;2024-02-28T16:54:05;16.58;;;9.57;;
55372;SDS011;70018;47.838;16.490;2024-02-28T16:56:32;16.58;;;9.32;;
55372;SDS011;70018;47.838;16.490;2024-02-28T16:58:59;16.50;;;8.05;;
55372;SDS011;70018;47.838;16.490;2024-02-28T17:01:26;19.10;;;8.85;;
55372;SDS011;70018;47.838;16.490;2024-02-28T17:03:53;15.57;;;7.30;;
55372;SDS011;70018;47.838;16.490;2024-02-28T17:06:20;18.25;;;7.70;;
55372;SDS011;70018;47.838;16.490;2024-02-28T17:08:47;18.17;;;9.98;;
55372;SDS011;70018;47.838;16.490;2024-02-28T17:11:14;19.05;;;9.70;;
55372;SDS011;70018;47.838;16.490;2024-02-28T17:13:41;16.05;;;8.15;;
55372;SDS011;70018;47.838;16.490;2024-02-28T17:16:08;16.02;;;8.30;;
55372;SDS011;70018;47.838;16.490;2024-02-28T17:51:53;12.32;;;5.97;;
55372;SDS011;70018;47.838;16.490;2024-02-28T18:08:53;6.30;;;3.75;;
55372;SDS011;70018;47.838;16.490;2024-02-28T18:31:10;21.13;;;7.45;;
55372;SDS011;70018;47.838;16.490;2024-02-28T18:42:04;14.00;;;7.60;;
55372;SDS011;70018;47.838;16.490;2024-02-28T18:44:32;13.70;;;6.07;;
55372;SDS011;70018;47.838;16.490;2024-02-28T18:47:04;15.45;;;5.93;;
55372;SDS011;70018;47.838;16.490;2024-02-28T19:16:25;20.13;;;7.53;;
55372;SDS011;70018;47.838;16.490;2024-02-28T19:18:52;18.45;;;6.60;;
55372;SDS011;70018;47.838;16.490;2024-02-28T19:21:19;15.30;;;7.93;;
55372;SDS011;70018;47.838;16.490;2024-02-28T19:23:46;18.85;;;7.32;;
55372;SDS011;70018;47.838;16.490;2024-02-28T19:26:15;12.05;;;5.90;;
55372;SDS011;70018;47.838;16.490;2024-02-28T19:28:42;12.80;;;5.22;;
55372;SDS011;70018;47.838;16.490;2024-02-28T19:31:10;8.15;;;3.72;;
55372;SDS011;70018;47.838;16.490;2024-02-28T19:33:37;12.15;;;4.85;;
55372;SDS011;70018;47.838;16.490;2024-02-28T19:36:06;12.60;;;5.50;;
55372;SDS011;70018;47.838;16.490;2024-02-28T19:38:33;13.68;;;5.43;;
55372;SDS011;70018;47.838;16.490;2024-02-28T19:41:00;11.48;;;4.70;;
55372;SDS011;70018;47.838;16.490;2024-02-28T19:43:26;14.43;;;7.00;;
55372;SDS011;70018;47.838;16.490;2024-02-28T19:45:53;9.73;;;4.30;;
55372;SDS011;70018;47.838;16.490;2024-02-28T19:48:20;11.63;;;4.03;;
55372;SDS011;70018;47.838;16.490;2024-02-28T19:50:47;17.58;;;6.40;;
55372;SDS011;70018;47.838;16.490;2024-02-28T19:53:13;12.23;;;6.30;;
55372;SDS011;70018;47.838;16.490;2024-02-28T19:55:40;14.07;;;5.68;;
55372;SDS011;70018;47.838;16.490;2024-02-28T19:58:07;12.88;;;6.25;;
55372;SDS011;70018;47.838;16.490;2024-02-28T20:00:33;9.25;;;5.32;;
55372;SDS011;70018;47.838;16.490;2024-02-28T20:03:00;11.73;;;5.50;;
55372;SDS011;70018;47.838;16.490;2024-02-28T20:05:29;10.40;;;5.10;;
55372;SDS011;70018;47.838;16.490;2024-02-28T20:07:56;11.88;;;6.57;;
55372;SDS011;70018;47.838;16.490;2024-02-28T20:10:23;15.40;;;6.07;;
55372;SDS011;70018;47.838;16.490;2024-02-28T20:12:49;12.73;;;6.65;;
55372;SDS011;70018;47.838;16.490;2024-02-28T20:15:16;13.07;;;5.57;;
55372;SDS011;70018;47.838;16.490;2024-02-28T20:17:43;14.52;;;6.45;;
55372;SDS011;70018;47.838;16.490;2024-02-28T20:20:10;12.13;;;6.35;;
55372;SDS011;70018;47.838;16.490;2024-02-28T20:22:37;14.93;;;7.40;;
55372;SDS011;70018;47.838;16.490;2024-02-28T20:25:04;13.68;;;6.50;;
55372;SDS011;70018;47.838;16.490;2024-02-28T20:27:31;18.92;;;6.65;;
55372;SDS011;70018;47.838;16.490;2024-02-28T20:29:58;15.93;;;7.55;;
55372;SDS011;70018;47.838;16.490;2024-02-28T20:32:24;13.05;;;5.63;;
55372;SDS011;70018;47.838;16.490;2024-02-28T20:34:51;10.45;;;4.65;;
55372;SDS011;70018;47.838;16.490;2024-02-28T20:37:18;11.60;;;6.07;;
55372;SDS011;70018;47.838;16.490;2024-02-28T20:39:47;13.05;;;5.28;;
55372;SDS011;70018;47.838;16.490;2024-02-28T20:42:15;15.43;;;6.68;;
55372;SDS011;70018;47.838;16.490;2024-02-28T20:44:41;13.82;;;6.53;;
55372;SDS011;70018;47.838;16.490;2024-02-28T20:47:08;13.18;;;6.60;;
55372;SDS011;70018;47.838;16.490;2024-02-28T20:49:35;13.55;;;6.47;;
55372;SDS011;70018;47.838;16.490;2024-02-28T20:52:03;10.80;;;5.97;;
55372;SDS011;70018;47.838;16.490;2024-02-28T20:54:30;10.05;;;6.03;;
55372;SDS011;70018;47.838;16.490;2024-02-28T20:56:56;10.48;;;4.72;;
55372;SDS011;70018;47.838;16.490;2024-02-28T20:59:37;13.10;;;6.28;;
55372;SDS011;70018;47.838;16.490;2024-02-28T21:02:04;11.30;;;5.50;;
55372;SDS011;70018;47.838;16.490;2024-02-28T21:04:31;14.23;;;6.25;;